sensor_id;sensor_type;location;lat;lon;timestamp;P1;durP1;ratioP1;P2;durP2;ratioP2
72198;SDS011;72266;51.056;16.880;2023-08-24T00:00:10;11.10;;;4.40;;
72198;SDS011;72266;51.056;16.880;2023-08-24T00:03:05;11.10;;;4.70;;
72198;SDS011;72266;51.056;16.880;2023-08-24T00:05:40;9.90;;;4.60;;
72198;SDS011;72266;51.056;16.880;2023-08-24T00:08:13;11.80;;;5.10;;
72198;SDS011;72266;51.056;16.880;2023-08-24T00:10:47;10.40;;;5.00;;
72198;SDS011;72266;51.056;16.880;2023-08-24T00:13:20;11.90;;;5.20;;
72198;SDS011;72266;51.056;16.880;2023-08-24T00:15:57;11.50;;;5.50;;
72198;SDS011;72266;51.056;16.880;2023-08-24T00:18:31;10.80;;;4.80;;
72198;SDS011;72266;51.056;16.880;2023-08-24T00:21:05;11.30;;;5.30;;
72198;SDS011;72266;51.056;16.880;2023-08-24T00:23:38;11.80;;;5.60;;
72198;SDS011;72266;51.056;16.880;2023-08-24T00:26:12;11.70;;;4.80;;
72198;SDS011;72266;51.056;16.880;2023-08-24T00:28:47;13.20;;;5.70;;
72198;SDS011;72266;51.056;16.880;2023-08-24T00:31:22;11.70;;;5.60;;
72198;SDS011;72266;51.056;16.880;2023-08-24T00:33:56;11.20;;;6.20;;
72198;SDS011;72266;51.056;16.880;2023-08-24T00:36:29;10.50;;;5.20;;
72198;SDS011;72266;51.056;16.880;2023-08-24T00:39:03;11.80;;;5.00;;
72198;SDS011;72266;51.056;16.880;2023-08-24T00:41:39;12.60;;;5.80;;
72198;SDS011;72266;51.056;16.880;2023-08-24T00:44:13;12.90;;;5.60;;
72198;SDS011;72266;51.056;16.880;2023-08-24T00:46:48;11.50;;;5.00;;
72198;SDS011;72266;51.056;16.880;2023-08-24T00:49:22;9.50;;;4.70;;
72198;SDS011;72266;51.056;16.880;2023-08-24T00:51:56;12.00;;;5.20;;
72198;SDS011;72266;51.056;16.880;2023-08-24T00:54:31;10.40;;;5.10;;
72198;SDS011;72266;51.056;16.880;2023-08-24T00:57:06;10.50;;;4.80;;
72198;SDS011;72266;51.056;16.880;2023-08-24T00:59:40;9.70;;;4.70;;
72198;SDS011;72266;51.056;16.880;2023-08-24T01:02:13;10.40;;;5.40;;
72198;SDS011;72266;51.056;16.880;2023-08-24T01:04:47;9.90;;;4.70;;
72198;SDS011;72266;51.056;16.880;2023-08-24T01:07:21;10.00;;;4.90;;
72198;SDS011;72266;51.056;16.880;2023-08-24T01:09:54;13.50;;;5.60;;
72198;SDS011;72266;51.056;16.880;2023-08-24T01:12:31;12.60;;;5.50;;
72198;SDS011;72266;51.056;16.880;2023-08-24T01:15:09;13.00;;;5.50;;
72198;SDS011;72266;51.056;16.880;2023-08-24T01:17:46;11.20;;;5.10;;
72198;SDS011;72266;51.056;16.880;2023-08-24T01:20:21;11.40;;;5.00;;
72198;SDS011;72266;51.056;16.880;2023-08-24T01:22:55;12.30;;;6.10;;
72198;SDS011;72266;51.056;16.880;2023-08-24T01:25:37;10.40;;;5.20;;
72198;SDS011;72266;51.056;16.880;2023-08-24T01:28:14;13.20;;;5.40;;
72198;SDS011;72266;51.056;16.880;2023-08-24T01:30:47;11.40;;;5.20;;
72198;SDS011;72266;51.056;16.880;2023-08-24T01:33:21;10.20;;;5.00;;
72198;SDS011;72266;51.056;16.880;2023-08-24T01:35:55;10.70;;;5.30;;
72198;SDS011;72266;51.056;16.880;2023-08-24T01:38:30;12.00;;;5.90;;
72198;SDS011;72266;51.056;16.880;2023-08-24T01:41:06;12.20;;;6.10;;
72198;SDS011;72266;51.056;16.880;2023-08-24T01:43:45;14.20;;;6.50;;
72198;SDS011;72266;51.056;16.880;2023-08-24T01:46:21;14.70;;;6.10;;
72198;SDS011;72266;51.056;16.880;2023-08-24T01:48:55;13.30;;;5.90;;
72198;SDS011;72266;51.056;16.880;2023-08-24T01:51:29;11.50;;;5.90;;
72198;SDS011;72266;51.056;16.880;2023-08-24T01:54:04;11.90;;;6.00;;
72198;SDS011;72266;51.056;16.880;2023-08-24T01:56:40;14.20;;;6.50;;
72198;SDS011;72266;51.056;16.880;2023-08-24T01:59:14;12.70;;;6.10;;
72198;SDS011;72266;51.056;16.880;2023-08-24T02:01:50;13.40;;;6.40;;
72198;SDS011;72266;51.056;16.880;2023-08-24T02:04:24;12.30;;;5.90;;
72198;SDS011;72266;51.056;16.880;2023-08-24T02:06:58;12.30;;;6.50;;
72198;SDS011;72266;51.056;16.880;2023-08-24T02:09:31;13.40;;;5.90;;
72198;SDS011;72266;51.056;16.880;2023-08-24T02:12:05;13.00;;;6.40;;
72198;SDS011;72266;51.056;16.880;2023-08-24T02:14:39;12.40;;;6.60;;
72198;SDS011;72266;51.056;16.880;2023-08-24T02:17:12;12.30;;;6.10;;
72198;SDS011;72266;51.056;16.880;2023-08-24T02:19:46;13.00;;;6.40;;
72198;SDS011;72266;51.056;16.880;2023-08-24T02:22:22;14.00;;;6.40;;
72198;SDS011;72266;51.056;16.880;2023-08-24T02:24:56;12.20;;;6.60;;
72198;SDS011;72266;51.056;16.880;2023-08-24T02:27:31;14.30;;;6.40;;
72198;SDS011;72266;51.056;16.880;2023-08-24T02:30:07;11.90;;;6.10;;
72198;SDS011;72266;51.056;16.880;2023-08-24T02:32:41;11.50;;;5.80;;
72198;SDS011;72266;51.056;16.880;2023-08-24T02:35:14;12.10;;;5.90;;
72198;SDS011;72266;51.056;16.880;2023-08-24T02:37:48;13.20;;;6.20;;
72198;SDS011;72266;51.056;16.880;2023-08-24T02:40:22;12.40;;;5.70;;
72198;SDS011;72266;51.056;16.880;2023-08-24T02:42:56;12.70;;;5.60;;
72198;SDS011;72266;51.056;16.880;2023-08-24T02:45:29;11.70;;;6.10;;
72198;SDS011;72266;51.056;16.880;2023-08-24T02:48:03;10.80;;;5.70;;
72198;SDS011;72266;51.056;16.880;2023-08-24T02:50:37;13.50;;;6.40;;
72198;SDS011;72266;51.056;16.880;2023-08-24T02:53:10;13.30;;;6.60;;
72198;SDS011;72266;51.056;16.880;2023-08-24T02:55:44;11.40;;;5.70;;
72198;SDS011;72266;51.056;16.880;2023-08-24T02:58:19;11.30;;;5.90;;
72198;SDS011;72266;51.056;16.880;2023-08-24T03:00:52;12.60;;;6.40;;
72198;SDS011;72266;51.056;16.880;2023-08-24T03:03:26;12.40;;;6.20;;
72198;SDS011;72266;51.056;16.880;2023-08-24T03:06:02;12.20;;;5.80;;
72198;SDS011;72266;51.056;16.880;2023-08-24T03:08:36;10.90;;;5.80;;
72198;SDS011;72266;51.056;16.880;2023-08-24T03:11:09;13.80;;;5.70;;
72198;SDS011;72266;51.056;16.880;2023-08-24T03:13:43;11.70;;;6.10;;
72198;SDS011;72266;51.056;16.880;2023-08-24T03:16:16;13.60;;;6.20;;
72198;SDS011;72266;51.056;16.880;2023-08-24T03:18:50;11.90;;;5.80;;
72198;SDS011;72266;51.056;16.880;2023-08-24T03:21:23;12.30;;;5.90;;
72198;SDS011;72266;51.056;16.880;2023-08-24T03:23:57;12.90;;;6.10;;
72198;SDS011;72266;51.056;16.880;2023-08-24T03:26:31;12.90;;;6.50;;
72198;SDS011;72266;51.056;16.880;2023-08-24T03:29:04;12.70;;;6.80;;
72198;SDS011;72266;51.056;16.880;2023-08-24T03:31:38;12.30;;;6.20;;
72198;SDS011;72266;51.056;16.880;2023-08-24T03:34:11;15.50;;;6.90;;
72198;SDS011;72266;51.056;16.880;2023-08-24T03:36:45;13.10;;;6.80;;
72198;SDS011;72266;51.056;16.880;2023-08-24T03:39:18;12.60;;;6.40;;
72198;SDS011;72266;51.056;16.880;2023-08-24T03:41:52;13.80;;;7.40;;
72198;SDS011;72266;51.056;16.880;2023-08-24T03:44:27;14.00;;;6.60;;
72198;SDS011;72266;51.056;16.880;2023-08-24T03:47:00;12.80;;;6.30;;
72198;SDS011;72266;51.056;16.880;2023-08-24T03:49:36;14.30;;;6.80;;
72198;SDS011;72266;51.056;16.880;2023-08-24T03:52:12;14.60;;;6.40;;
72198;SDS011;72266;51.056;16.880;2023-08-24T03:54:46;14.30;;;7.40;;
72198;SDS011;72266;51.056;16.880;2023-08-24T03:57:19;13.80;;;7.20;;
72198;SDS011;72266;51.056;16.880;2023-08-24T03:59:56;15.10;;;6.90;;
72198;SDS011;72266;51.056;16.880;2023-08-24T04:02:30;15.00;;;6.90;;
72198;SDS011;72266;51.056;16.880;2023-08-24T04:05:04;13.80;;;7.20;;
72198;SDS011;72266;51.056;16.880;2023-08-24T04:07:38;16.20;;;7.60;;
72198;SDS011;72266;51.056;16.880;2023-08-24T04:10:12;16.00;;;7.10;;
72198;SDS011;72266;51.056;16.880;2023-08-24T04:12:45;16.20;;;7.60;;
72198;SDS011;72266;51.056;16.880;2023-08-24T04:15:20;12.70;;;6.80;;
72198;SDS011;72266;51.056;16.880;2023-08-24T04:17:55;13.70;;;7.80;;
72198;SDS011;72266;51.056;16.880;2023-08-24T04:20:28;14.00;;;7.30;;
72198;SDS011;72266;51.056;16.880;2023-08-24T04:23:02;15.50;;;7.40;;
72198;SDS011;72266;51.056;16.880;2023-08-24T04:25:36;14.40;;;7.60;;
72198;SDS011;72266;51.056;16.880;2023-08-24T04:28:18;13.50;;;7.70;;
72198;SDS011;72266;51.056;16.880;2023-08-24T04:30:52;12.80;;;7.30;;
72198;SDS011;72266;51.056;16.880;2023-08-24T04:33:27;14.70;;;10.30;;
72198;SDS011;72266;51.056;16.880;2023-08-24T04:36:01;14.20;;;7.20;;
72198;SDS011;72266;51.056;16.880;2023-08-24T04:38:35;11.70;;;6.60;;
72198;SDS011;72266;51.056;16.880;2023-08-24T04:43:42;12.50;;;6.40;;
72198;SDS011;72266;51.056;16.880;2023-08-24T04:46:17;15.00;;;6.60;;
72198;SDS011;72266;51.056;16.880;2023-08-24T04:48:50;12.80;;;6.10;;
72198;SDS011;72266;51.056;16.880;2023-08-24T04:51:23;11.50;;;6.00;;
72198;SDS011;72266;51.056;16.880;2023-08-24T04:53:57;14.80;;;6.30;;
72198;SDS011;72266;51.056;16.880;2023-08-24T04:56:30;12.10;;;5.70;;
72198;SDS011;72266;51.056;16.880;2023-08-24T04:59:04;11.10;;;5.30;;
72198;SDS011;72266;51.056;16.880;2023-08-24T05:01:38;12.70;;;5.70;;
72198;SDS011;72266;51.056;16.880;2023-08-24T05:04:11;10.80;;;5.30;;
72198;SDS011;72266;51.056;16.880;2023-08-24T05:06:44;10.80;;;4.40;;
72198;SDS011;72266;51.056;16.880;2023-08-24T05:09:18;12.80;;;5.10;;
72198;SDS011;72266;51.056;16.880;2023-08-24T05:11:52;10.50;;;4.90;;
72198;SDS011;72266;51.056;16.880;2023-08-24T05:14:27;11.00;;;4.40;;
72198;SDS011;72266;51.056;16.880;2023-08-24T05:17:01;9.40;;;4.40;;
72198;SDS011;72266;51.056;16.880;2023-08-24T05:19:41;10.50;;;4.70;;
72198;SDS011;72266;51.056;16.880;2023-08-24T05:22:15;10.90;;;4.30;;
72198;SDS011;72266;51.056;16.880;2023-08-24T05:24:49;9.90;;;4.40;;
72198;SDS011;72266;51.056;16.880;2023-08-24T05:27:23;12.30;;;4.60;;
72198;SDS011;72266;51.056;16.880;2023-08-24T05:29:57;10.30;;;4.40;;
72198;SDS011;72266;51.056;16.880;2023-08-24T05:32:30;9.40;;;4.40;;
72198;SDS011;72266;51.056;16.880;2023-08-24T05:35:09;10.60;;;4.60;;
72198;SDS011;72266;51.056;16.880;2023-08-24T05:37:42;11.40;;;4.40;;
72198;SDS011;72266;51.056;16.880;2023-08-24T05:40:18;9.10;;;3.80;;
72198;SDS011;72266;51.056;16.880;2023-08-24T05:42:54;10.30;;;4.00;;
72198;SDS011;72266;51.056;16.880;2023-08-24T05:45:28;10.90;;;4.30;;
72198;SDS011;72266;51.056;16.880;2023-08-24T05:48:01;9.10;;;4.40;;
72198;SDS011;72266;51.056;16.880;2023-08-24T05:50:36;9.60;;;4.10;;
72198;SDS011;72266;51.056;16.880;2023-08-24T05:53:11;8.90;;;4.10;;
72198;SDS011;72266;51.056;16.880;2023-08-24T05:55:45;10.80;;;4.40;;
72198;SDS011;72266;51.056;16.880;2023-08-24T05:58:19;9.90;;;4.20;;
72198;SDS011;72266;51.056;16.880;2023-08-24T06:00:56;9.90;;;4.30;;
72198;SDS011;72266;51.056;16.880;2023-08-24T06:03:30;9.70;;;4.30;;
72198;SDS011;72266;51.056;16.880;2023-08-24T06:06:05;11.20;;;4.20;;
72198;SDS011;72266;51.056;16.880;2023-08-24T06:08:40;9.80;;;4.30;;
72198;SDS011;72266;51.056;16.880;2023-08-24T06:11:13;11.20;;;4.10;;
72198;SDS011;72266;51.056;16.880;2023-08-24T06:13:47;8.70;;;4.50;;
72198;SDS011;72266;51.056;16.880;2023-08-24T06:16:23;12.10;;;5.00;;
72198;SDS011;72266;51.056;16.880;2023-08-24T06:18:56;9.40;;;4.20;;
72198;SDS011;72266;51.056;16.880;2023-08-24T06:21:29;9.90;;;3.70;;
72198;SDS011;72266;51.056;16.880;2023-08-24T06:24:03;10.20;;;4.00;;
72198;SDS011;72266;51.056;16.880;2023-08-24T06:26:37;10.40;;;4.40;;
72198;SDS011;72266;51.056;16.880;2023-08-24T06:29:10;8.70;;;4.20;;
72198;SDS011;72266;51.056;16.880;2023-08-24T06:31:44;9.30;;;4.40;;
72198;SDS011;72266;51.056;16.880;2023-08-24T06:34:17;10.20;;;4.20;;
72198;SDS011;72266;51.056;16.880;2023-08-24T06:36:52;10.50;;;4.30;;
72198;SDS011;72266;51.056;16.880;2023-08-24T06:39:26;8.90;;;4.40;;
72198;SDS011;72266;51.056;16.880;2023-08-24T06:41:59;10.00;;;4.30;;
72198;SDS011;72266;51.056;16.880;2023-08-24T06:44:33;10.20;;;4.40;;
72198;SDS011;72266;51.056;16.880;2023-08-24T06:47:08;9.90;;;4.10;;
72198;SDS011;72266;51.056;16.880;2023-08-24T06:49:42;8.90;;;3.80;;
72198;SDS011;72266;51.056;16.880;2023-08-24T06:52:18;7.90;;;4.10;;
72198;SDS011;72266;51.056;16.880;2023-08-24T06:54:52;8.40;;;3.70;;
72198;SDS011;72266;51.056;16.880;2023-08-24T06:57:27;9.30;;;4.00;;
72198;SDS011;72266;51.056;16.880;2023-08-24T07:00:04;9.10;;;4.20;;
72198;SDS011;72266;51.056;16.880;2023-08-24T07:02:39;8.60;;;3.70;;
72198;SDS011;72266;51.056;16.880;2023-08-24T07:05:13;11.00;;;4.20;;
72198;SDS011;72266;51.056;16.880;2023-08-24T07:07:50;8.50;;;4.20;;
72198;SDS011;72266;51.056;16.880;2023-08-24T07:10:24;9.40;;;3.90;;
72198;SDS011;72266;51.056;16.880;2023-08-24T07:12:58;8.60;;;3.50;;
72198;SDS011;72266;51.056;16.880;2023-08-24T07:15:31;8.80;;;4.20;;
72198;SDS011;72266;51.056;16.880;2023-08-24T07:18:05;8.30;;;4.00;;
72198;SDS011;72266;51.056;16.880;2023-08-24T07:20:42;9.30;;;4.30;;
72198;SDS011;72266;51.056;16.880;2023-08-24T07:23:16;8.50;;;3.90;;
72198;SDS011;72266;51.056;16.880;2023-08-24T07:25:51;9.20;;;4.10;;
72198;SDS011;72266;51.056;16.880;2023-08-24T07:28:25;8.40;;;3.50;;
72198;SDS011;72266;51.056;16.880;2023-08-24T07:31:09;10.10;;;4.00;;
72198;SDS011;72266;51.056;16.880;2023-08-24T07:33:43;9.00;;;3.40;;
72198;SDS011;72266;51.056;16.880;2023-08-24T07:36:17;8.10;;;3.40;;
72198;SDS011;72266;51.056;16.880;2023-08-24T07:38:59;10.40;;;3.40;;
72198;SDS011;72266;51.056;16.880;2023-08-24T07:41:33;8.70;;;3.80;;
72198;SDS011;72266;51.056;16.880;2023-08-24T07:44:06;9.70;;;4.20;;
72198;SDS011;72266;51.056;16.880;2023-08-24T07:46:40;7.60;;;3.10;;
72198;SDS011;72266;51.056;16.880;2023-08-24T07:49:14;8.00;;;3.20;;
72198;SDS011;72266;51.056;16.880;2023-08-24T07:51:51;10.30;;;3.80;;
72198;SDS011;72266;51.056;16.880;2023-08-24T07:54:32;8.30;;;3.10;;
72198;SDS011;72266;51.056;16.880;2023-08-24T07:57:06;8.90;;;3.70;;
72198;SDS011;72266;51.056;16.880;2023-08-24T07:59:41;8.70;;;3.80;;
72198;SDS011;72266;51.056;16.880;2023-08-24T08:02:16;9.40;;;3.40;;
72198;SDS011;72266;51.056;16.880;2023-08-24T08:04:49;9.10;;;3.70;;
72198;SDS011;72266;51.056;16.880;2023-08-24T08:07:23;8.80;;;3.40;;
72198;SDS011;72266;51.056;16.880;2023-08-24T08:09:58;13.40;;;3.60;;
72198;SDS011;72266;51.056;16.880;2023-08-24T08:12:35;10.70;;;3.70;;
72198;SDS011;72266;51.056;16.880;2023-08-24T08:15:09;7.20;;;2.80;;
72198;SDS011;72266;51.056;16.880;2023-08-24T08:17:42;8.00;;;2.80;;
72198;SDS011;72266;51.056;16.880;2023-08-24T08:20:15;7.90;;;2.90;;
72198;SDS011;72266;51.056;16.880;2023-08-24T08:22:49;9.80;;;3.40;;
72198;SDS011;72266;51.056;16.880;2023-08-24T08:25:22;10.20;;;3.30;;
72198;SDS011;72266;51.056;16.880;2023-08-24T08:27:55;7.10;;;3.30;;
72198;SDS011;72266;51.056;16.880;2023-08-24T08:30:29;9.60;;;3.40;;
72198;SDS011;72266;51.056;16.880;2023-08-24T08:33:02;8.00;;;2.90;;
72198;SDS011;72266;51.056;16.880;2023-08-24T08:35:37;9.20;;;3.10;;
72198;SDS011;72266;51.056;16.880;2023-08-24T08:38:11;10.10;;;3.90;;
72198;SDS011;72266;51.056;16.880;2023-08-24T08:40:45;9.70;;;3.00;;
72198;SDS011;72266;51.056;16.880;2023-08-24T08:43:19;7.00;;;2.80;;
72198;SDS011;72266;51.056;16.880;2023-08-24T08:45:57;7.50;;;2.90;;
72198;SDS011;72266;51.056;16.880;2023-08-24T08:48:31;7.10;;;2.60;;
72198;SDS011;72266;51.056;16.880;2023-08-24T08:51:13;8.90;;;2.90;;
72198;SDS011;72266;51.056;16.880;2023-08-24T08:53:48;7.80;;;3.10;;
72198;SDS011;72266;51.056;16.880;2023-08-24T08:56:29;8.70;;;2.70;;
72198;SDS011;72266;51.056;16.880;2023-08-24T08:59:02;8.10;;;2.60;;
72198;SDS011;72266;51.056;16.880;2023-08-24T09:01:41;7.20;;;2.80;;
72198;SDS011;72266;51.056;16.880;2023-08-24T09:04:21;7.40;;;2.70;;
72198;SDS011;72266;51.056;16.880;2023-08-24T09:07:00;7.10;;;2.90;;
72198;SDS011;72266;51.056;16.880;2023-08-24T09:09:42;9.40;;;2.90;;
72198;SDS011;72266;51.056;16.880;2023-08-24T09:12:20;9.80;;;2.70;;
72198;SDS011;72266;51.056;16.880;2023-08-24T09:14:55;8.80;;;3.00;;
72198;SDS011;72266;51.056;16.880;2023-08-24T09:17:29;8.10;;;2.90;;
72198;SDS011;72266;51.056;16.880;2023-08-24T09:20:12;7.80;;;2.60;;
72198;SDS011;72266;51.056;16.880;2023-08-24T09:22:57;8.90;;;3.10;;
72198;SDS011;72266;51.056;16.880;2023-08-24T09:25:30;7.30;;;2.60;;
72198;SDS011;72266;51.056;16.880;2023-08-24T09:28:10;7.20;;;2.90;;
72198;SDS011;72266;51.056;16.880;2023-08-24T09:30:44;8.80;;;3.20;;
72198;SDS011;72266;51.056;16.880;2023-08-24T09:33:22;7.60;;;2.40;;
72198;SDS011;72266;51.056;16.880;2023-08-24T09:35:58;7.50;;;2.80;;
72198;SDS011;72266;51.056;16.880;2023-08-24T09:38:33;7.30;;;2.60;;
72198;SDS011;72266;51.056;16.880;2023-08-24T09:41:06;9.30;;;3.10;;
72198;SDS011;72266;51.056;16.880;2023-08-24T09:43:40;8.40;;;2.90;;
72198;SDS011;72266;51.056;16.880;2023-08-24T09:46:18;6.60;;;2.40;;
72198;SDS011;72266;51.056;16.880;2023-08-24T09:48:55;6.70;;;2.80;;
72198;SDS011;72266;51.056;16.880;2023-08-24T09:51:31;7.40;;;3.00;;
72198;SDS011;72266;51.056;16.880;2023-08-24T09:54:07;8.40;;;3.00;;
72198;SDS011;72266;51.056;16.880;2023-08-24T09:56:49;7.90;;;2.90;;
72198;SDS011;72266;51.056;16.880;2023-08-24T09:59:31;7.80;;;3.00;;
72198;SDS011;72266;51.056;16.880;2023-08-24T10:02:08;7.30;;;3.00;;
72198;SDS011;72266;51.056;16.880;2023-08-24T10:04:51;7.90;;;3.00;;
72198;SDS011;72266;51.056;16.880;2023-08-24T10:07:27;8.30;;;3.10;;
72198;SDS011;72266;51.056;16.880;2023-08-24T10:10:07;6.90;;;2.80;;
72198;SDS011;72266;51.056;16.880;2023-08-24T10:12:44;9.60;;;3.00;;
72198;SDS011;72266;51.056;16.880;2023-08-24T10:15:21;7.40;;;2.60;;
72198;SDS011;72266;51.056;16.880;2023-08-24T10:17:57;8.50;;;3.40;;
72198;SDS011;72266;51.056;16.880;2023-08-24T10:20:33;8.70;;;3.90;;
72198;SDS011;72266;51.056;16.880;2023-08-24T10:23:09;7.40;;;3.00;;
72198;SDS011;72266;51.056;16.880;2023-08-24T10:25:47;8.40;;;3.10;;
72198;SDS011;72266;51.056;16.880;2023-08-24T10:28:24;7.70;;;3.20;;
72198;SDS011;72266;51.056;16.880;2023-08-24T10:31:13;7.70;;;3.30;;
72198;SDS011;72266;51.056;16.880;2023-08-24T10:33:53;8.40;;;3.30;;
72198;SDS011;72266;51.056;16.880;2023-08-24T10:36:33;7.50;;;3.20;;
72198;SDS011;72266;51.056;16.880;2023-08-24T10:39:09;7.80;;;2.90;;
72198;SDS011;72266;51.056;16.880;2023-08-24T10:41:50;7.60;;;2.90;;
72198;SDS011;72266;51.056;16.880;2023-08-24T10:44:24;6.90;;;3.10;;
72198;SDS011;72266;51.056;16.880;2023-08-24T10:47:13;7.70;;;3.60;;
72198;SDS011;72266;51.056;16.880;2023-08-24T10:50:00;8.10;;;3.20;;
72198;SDS011;72266;51.056;16.880;2023-08-24T10:52:36;8.30;;;3.20;;
72198;SDS011;72266;51.056;16.880;2023-08-24T10:55:25;9.70;;;3.50;;
72198;SDS011;72266;51.056;16.880;2023-08-24T10:57:59;7.90;;;3.00;;
72198;SDS011;72266;51.056;16.880;2023-08-24T11:00:32;7.90;;;3.30;;
72198;SDS011;72266;51.056;16.880;2023-08-24T11:03:05;7.70;;;2.90;;
72198;SDS011;72266;51.056;16.880;2023-08-24T11:05:39;8.20;;;3.30;;
72198;SDS011;72266;51.056;16.880;2023-08-24T11:08:20;6.60;;;2.90;;
72198;SDS011;72266;51.056;16.880;2023-08-24T11:11:21;8.80;;;3.50;;
72198;SDS011;72266;51.056;16.880;2023-08-24T11:16:46;8.30;;;3.30;;
72198;SDS011;72266;51.056;16.880;2023-08-24T11:19:20;8.50;;;2.80;;
72198;SDS011;72266;51.056;16.880;2023-08-24T11:21:54;6.80;;;3.20;;
72198;SDS011;72266;51.056;16.880;2023-08-24T11:24:56;8.20;;;2.60;;
72198;SDS011;72266;51.056;16.880;2023-08-24T11:27:43;8.40;;;3.00;;
72198;SDS011;72266;51.056;16.880;2023-08-24T11:31:10;7.30;;;3.00;;
72198;SDS011;72266;51.056;16.880;2023-08-24T11:35:00;8.50;;;2.70;;
72198;SDS011;72266;51.056;16.880;2023-08-24T11:38:08;12.50;;;3.10;;
72198;SDS011;72266;51.056;16.880;2023-08-24T11:42:15;7.50;;;2.50;;
72198;SDS011;72266;51.056;16.880;2023-08-24T11:46:14;8.00;;;2.80;;
72198;SDS011;72266;51.056;16.880;2023-08-24T11:53:17;6.90;;;2.20;;
72198;SDS011;72266;51.056;16.880;2023-08-24T11:56:11;6.80;;;2.50;;
72198;SDS011;72266;51.056;16.880;2023-08-24T11:58:49;7.70;;;2.40;;
72198;SDS011;72266;51.056;16.880;2023-08-24T12:01:27;8.70;;;2.70;;
72198;SDS011;72266;51.056;16.880;2023-08-24T12:08:39;7.30;;;2.80;;
72198;SDS011;72266;51.056;16.880;2023-08-24T12:11:23;7.20;;;2.50;;
72198;SDS011;72266;51.056;16.880;2023-08-24T12:14:04;7.20;;;2.60;;
72198;SDS011;72266;51.056;16.880;2023-08-24T12:16:53;7.50;;;2.40;;
72198;SDS011;72266;51.056;16.880;2023-08-24T12:19:34;7.30;;;2.50;;
72198;SDS011;72266;51.056;16.880;2023-08-24T12:22:44;6.60;;;2.20;;
72198;SDS011;72266;51.056;16.880;2023-08-24T12:28:40;9.40;;;2.50;;
72198;SDS011;72266;51.056;16.880;2023-08-24T12:31:51;7.50;;;2.60;;
72198;SDS011;72266;51.056;16.880;2023-08-24T12:34:30;9.10;;;2.20;;
72198;SDS011;72266;51.056;16.880;2023-08-24T12:37:03;7.80;;;2.40;;
72198;SDS011;72266;51.056;16.880;2023-08-24T12:39:39;7.50;;;2.40;;
72198;SDS011;72266;51.056;16.880;2023-08-24T12:43:00;6.80;;;2.60;;
72198;SDS011;72266;51.056;16.880;2023-08-24T12:45:41;7.20;;;2.40;;
72198;SDS011;72266;51.056;16.880;2023-08-24T12:51:53;6.50;;;2.40;;
72198;SDS011;72266;51.056;16.880;2023-08-24T12:54:38;7.90;;;2.70;;
72198;SDS011;72266;51.056;16.880;2023-08-24T12:57:31;7.20;;;2.90;;
72198;SDS011;72266;51.056;16.880;2023-08-24T13:00:11;6.10;;;2.40;;
72198;SDS011;72266;51.056;16.880;2023-08-24T13:02:55;7.50;;;2.60;;
72198;SDS011;72266;51.056;16.880;2023-08-24T13:05:31;9.80;;;2.80;;
72198;SDS011;72266;51.056;16.880;2023-08-24T13:08:09;7.60;;;2.70;;
72198;SDS011;72266;51.056;16.880;2023-08-24T13:10:48;7.10;;;2.40;;
72198;SDS011;72266;51.056;16.880;2023-08-24T13:13:23;6.50;;;2.70;;
72198;SDS011;72266;51.056;16.880;2023-08-24T13:15:57;8.00;;;3.20;;
72198;SDS011;72266;51.056;16.880;2023-08-24T13:18:38;10.00;;;3.50;;
72198;SDS011;72266;51.056;16.880;2023-08-24T13:21:18;8.70;;;3.10;;
72198;SDS011;72266;51.056;16.880;2023-08-24T13:24:27;8.20;;;3.60;;
72198;SDS011;72266;51.056;16.880;2023-08-24T13:30:05;9.70;;;2.90;;
72198;SDS011;72266;51.056;16.880;2023-08-24T13:32:44;7.90;;;2.90;;
72198;SDS011;72266;51.056;16.880;2023-08-24T13:36:01;7.50;;;2.90;;
72198;SDS011;72266;51.056;16.880;2023-08-24T13:39:32;7.10;;;2.80;;
72198;SDS011;72266;51.056;16.880;2023-08-24T13:42:25;6.60;;;2.50;;
72198;SDS011;72266;51.056;16.880;2023-08-24T13:44:59;8.50;;;2.50;;
72198;SDS011;72266;51.056;16.880;2023-08-24T13:50:34;7.00;;;2.60;;
72198;SDS011;72266;51.056;16.880;2023-08-24T13:53:09;6.80;;;2.50;;
72198;SDS011;72266;51.056;16.880;2023-08-24T13:55:47;8.40;;;3.00;;
72198;SDS011;72266;51.056;16.880;2023-08-24T13:58:24;7.50;;;2.90;;
72198;SDS011;72266;51.056;16.880;2023-08-24T14:01:27;7.60;;;2.40;;
72198;SDS011;72266;51.056;16.880;2023-08-24T14:04:00;7.50;;;2.40;;
72198;SDS011;72266;51.056;16.880;2023-08-24T14:09:42;7.40;;;2.60;;
72198;SDS011;72266;51.056;16.880;2023-08-24T14:12:39;10.10;;;2.70;;
72198;SDS011;72266;51.056;16.880;2023-08-24T14:15:58;7.90;;;2.70;;
72198;SDS011;72266;51.056;16.880;2023-08-24T14:18:56;8.50;;;2.30;;
72198;SDS011;72266;51.056;16.880;2023-08-24T14:21:47;8.10;;;3.00;;
72198;SDS011;72266;51.056;16.880;2023-08-24T14:24:42;9.10;;;2.90;;
72198;SDS011;72266;51.056;16.880;2023-08-24T14:27:30;8.00;;;3.00;;
72198;SDS011;72266;51.056;16.880;2023-08-24T14:30:19;7.80;;;2.60;;
72198;SDS011;72266;51.056;16.880;2023-08-24T14:33:29;7.40;;;2.50;;
72198;SDS011;72266;51.056;16.880;2023-08-24T14:36:22;8.60;;;2.90;;
72198;SDS011;72266;51.056;16.880;2023-08-24T14:39:21;7.60;;;2.80;;
72198;SDS011;72266;51.056;16.880;2023-08-24T14:42:13;7.60;;;2.80;;
72198;SDS011;72266;51.056;16.880;2023-08-24T14:44:52;8.20;;;2.50;;
72198;SDS011;72266;51.056;16.880;2023-08-24T14:47:40;6.60;;;2.30;;
72198;SDS011;72266;51.056;16.880;2023-08-24T14:50:16;8.60;;;2.80;;
72198;SDS011;72266;51.056;16.880;2023-08-24T14:52:55;7.10;;;2.60;;
72198;SDS011;72266;51.056;16.880;2023-08-24T14:56:20;8.10;;;2.70;;
72198;SDS011;72266;51.056;16.880;2023-08-24T14:59:01;7.10;;;2.70;;
72198;SDS011;72266;51.056;16.880;2023-08-24T15:01:38;6.90;;;2.50;;
72198;SDS011;72266;51.056;16.880;2023-08-24T15:04:25;7.70;;;2.90;;
72198;SDS011;72266;51.056;16.880;2023-08-24T15:07:18;8.90;;;3.00;;
72198;SDS011;72266;51.056;16.880;2023-08-24T15:10:12;9.80;;;2.90;;
72198;SDS011;72266;51.056;16.880;2023-08-24T15:12:47;7.00;;;2.80;;
72198;SDS011;72266;51.056;16.880;2023-08-24T15:15:29;8.70;;;2.70;;
72198;SDS011;72266;51.056;16.880;2023-08-24T15:18:03;8.30;;;2.40;;
72198;SDS011;72266;51.056;16.880;2023-08-24T15:20:46;7.90;;;2.60;;
72198;SDS011;72266;51.056;16.880;2023-08-24T15:23:25;8.50;;;2.60;;
72198;SDS011;72266;51.056;16.880;2023-08-24T15:26:09;6.30;;;2.50;;
72198;SDS011;72266;51.056;16.880;2023-08-24T15:29:10;8.00;;;3.00;;
72198;SDS011;72266;51.056;16.880;2023-08-24T15:32:09;7.00;;;2.80;;
72198;SDS011;72266;51.056;16.880;2023-08-24T15:35:20;8.10;;;3.00;;
72198;SDS011;72266;51.056;16.880;2023-08-24T15:41:39;8.20;;;2.40;;
72198;SDS011;72266;51.056;16.880;2023-08-24T15:44:44;9.90;;;2.60;;
72198;SDS011;72266;51.056;16.880;2023-08-24T15:47:43;7.70;;;2.80;;
72198;SDS011;72266;51.056;16.880;2023-08-24T15:50:42;9.70;;;3.10;;
72198;SDS011;72266;51.056;16.880;2023-08-24T15:53:47;7.80;;;2.70;;
72198;SDS011;72266;51.056;16.880;2023-08-24T16:03:03;7.60;;;2.50;;
72198;SDS011;72266;51.056;16.880;2023-08-24T16:06:01;9.50;;;2.40;;
72198;SDS011;72266;51.056;16.880;2023-08-24T16:09:16;9.20;;;2.50;;
72198;SDS011;72266;51.056;16.880;2023-08-24T16:15:30;7.70;;;2.90;;
72198;SDS011;72266;51.056;16.880;2023-08-24T16:18:06;7.30;;;2.70;;
72198;SDS011;72266;51.056;16.880;2023-08-24T16:20:48;10.30;;;2.60;;
72198;SDS011;72266;51.056;16.880;2023-08-24T16:26:51;7.80;;;2.60;;